sensor_id;sensor_type;location;lat;lon;timestamp;temperature;humidity
67186;HTU21D;54116;53.518;49.398;2022-10-16T00:02:25;0.61;106.45
67186;HTU21D;54116;53.518;49.398;2022-10-16T00:04:56;0.61;107.48
67186;HTU21D;54116;53.518;49.398;2022-10-16T00:07:27;0.61;107.48
67186;HTU21D;54116;53.518;49.398;2022-10-16T00:09:59;0.55;107.66
67186;HTU21D;54116;53.518;49.398;2022-10-16T00:12:30;0.57;108.01
67186;HTU21D;54116;53.518;49.398;2022-10-16T00:15:02;0.57;107.87
67186;HTU21D;54116;53.518;49.398;2022-10-16T00:17:33;0.55;107.40
67186;HTU21D;54116;53.518;49.398;2022-10-16T00:20:05;0.53;107.44
67186;HTU21D;54116;53.518;49.398;2022-10-16T00:22:36;0.50;107.91
67186;HTU21D;54116;53.518;49.398;2022-10-16T00:25:10;0.44;107.98
67186;HTU21D;54116;53.518;49.398;2022-10-16T00:27:42;0.43;107.52
67186;HTU21D;54116;53.518;49.398;2022-10-16T00:30:13;0.42;107.45
67186;HTU21D;54116;53.518;49.398;2022-10-16T00:32:44;0.39;107.77
67186;HTU21D;54116;53.518;49.398;2022-10-16T00:35:16;0.38;107.64
67186;HTU21D;54116;53.518;49.398;2022-10-16T00:37:47;0.36;107.91
67186;HTU21D;54116;53.518;49.398;2022-10-16T00:40:19;0.33;107.73
67186;HTU21D;54116;53.518;49.398;2022-10-16T00:42:50;0.31;107.53
67186;HTU21D;54116;53.518;49.398;2022-10-16T00:45:21;0.27;107.40
67186;HTU21D;54116;53.518;49.398;2022-10-16T00:47:54;0.24;107.73
67186;HTU21D;54116;53.518;49.398;2022-10-16T00:50:30;0.22;107.86
67186;HTU21D;54116;53.518;49.398;2022-10-16T00:53:02;0.23;108.04
67186;HTU21D;54116;53.518;49.398;2022-10-16T00:55:34;0.23;107.85
67186;HTU21D;54116;53.518;49.398;2022-10-16T00:58:09;0.23;107.96
67186;HTU21D;54116;53.518;49.398;2022-10-16T01:00:40;0.20;107.61
67186;HTU21D;54116;53.518;49.398;2022-10-16T01:03:26;0.14;108.03
67186;HTU21D;54116;53.518;49.398;2022-10-16T01:06:21;0.13;108.63
67186;HTU21D;54116;53.518;49.398;2022-10-16T01:09:21;0.14;108.59
67186;HTU21D;54116;53.518;49.398;2022-10-16T01:12:08;0.13;108.48
67186;HTU21D;54116;53.518;49.398;2022-10-16T01:14:54;0.05;107.95
67186;HTU21D;54116;53.518;49.398;2022-10-16T01:19:07;0.01;107.91
67186;HTU21D;54116;53.518;49.398;2022-10-16T01:21:04;-0.00;108.57
67186;HTU21D;54116;53.518;49.398;2022-10-16T01:30:26;-0.01;108.57
67186;HTU21D;54116;53.518;49.398;2022-10-16T01:33:09;-0.01;108.32
67186;HTU21D;54116;53.518;49.398;2022-10-16T01:36:12;-0.02;108.32
67186;HTU21D;54116;53.518;49.398;2022-10-16T01:38:47;-0.03;108.49
67186;HTU21D;54116;53.518;49.398;2022-10-16T01:41:30;-0.03;108.43
67186;HTU21D;54116;53.518;49.398;2022-10-16T01:44:06;-0.08;108.38
67186;HTU21D;54116;53.518;49.398;2022-10-16T01:46:41;-0.12;108.49
67186;HTU21D;54116;53.518;49.398;2022-10-16T01:49:14;-0.11;108.64
67186;HTU21D;54116;53.518;49.398;2022-10-16T01:51:47;-0.16;108.33
67186;HTU21D;54116;53.518;49.398;2022-10-16T01:54:20;-0.20;108.63
67186;HTU21D;54116;53.518;49.398;2022-10-16T01:56:55;-0.24;108.70
67186;HTU21D;54116;53.518;49.398;2022-10-16T01:59:30;-0.26;108.66
67186;HTU21D;54116;53.518;49.398;2022-10-16T02:02:06;-0.25;109.09
67186;HTU21D;54116;53.518;49.398;2022-10-16T02:05:05;-0.26;109.43
67186;HTU21D;54116;53.518;49.398;2022-10-16T02:07:39;-0.30;109.38
67186;HTU21D;54116;53.518;49.398;2022-10-16T02:10:13;-0.31;109.49
67186;HTU21D;54116;53.518;49.398;2022-10-16T02:12:49;-0.31;109.41
67186;HTU21D;54116;53.518;49.398;2022-10-16T02:15:22;-0.35;109.34
67186;HTU21D;54116;53.518;49.398;2022-10-16T02:17:54;-0.35;109.55
67186;HTU21D;54116;53.518;49.398;2022-10-16T02:20:27;-0.36;109.95
67186;HTU21D;54116;53.518;49.398;2022-10-16T02:23:00;-0.38;109.67
67186;HTU21D;54116;53.518;49.398;2022-10-16T02:25:35;-0.40;109.81
67186;HTU21D;54116;53.518;49.398;2022-10-16T02:28:19;-0.43;110.08
67186;HTU21D;54116;53.518;49.398;2022-10-16T02:31:04;-0.43;109.94
67186;HTU21D;54116;53.518;49.398;2022-10-16T02:33:39;-0.40;110.97
67186;HTU21D;54116;53.518;49.398;2022-10-16T02:36:11;-0.38;110.58
67186;HTU21D;54116;53.518;49.398;2022-10-16T02:38:43;-0.41;110.52
67186;HTU21D;54116;53.518;49.398;2022-10-16T02:41:15;-0.44;110.28
67186;HTU21D;54116;53.518;49.398;2022-10-16T02:43:46;-0.46;110.20
67186;HTU21D;54116;53.518;49.398;2022-10-16T02:46:18;-0.51;110.82
67186;HTU21D;54116;53.518;49.398;2022-10-16T02:48:50;-0.52;110.40
67186;HTU21D;54116;53.518;49.398;2022-10-16T02:51:21;-0.56;109.92
67186;HTU21D;54116;53.518;49.398;2022-10-16T02:53:52;-0.59;109.88
67186;HTU21D;54116;53.518;49.398;2022-10-16T02:56:24;-0.58;109.98
67186;HTU21D;54116;53.518;49.398;2022-10-16T02:58:55;-0.55;109.62
67186;HTU21D;54116;53.518;49.398;2022-10-16T03:01:27;-0.57;109.65
67186;HTU21D;54116;53.518;49.398;2022-10-16T03:03:58;-0.59;109.36
67186;HTU21D;54116;53.518;49.398;2022-10-16T03:06:29;-0.58;109.06
67186;HTU21D;54116;53.518;49.398;2022-10-16T03:09:01;-0.56;109.26
67186;HTU21D;54116;53.518;49.398;2022-10-16T03:11:33;-0.52;109.12
67186;HTU21D;54116;53.518;49.398;2022-10-16T03:14:04;-0.53;108.99
67186;HTU21D;54116;53.518;49.398;2022-10-16T03:16:35;-0.52;108.62
67186;HTU21D;54116;53.518;49.398;2022-10-16T03:19:09;-0.47;108.73
67186;HTU21D;54116;53.518;49.398;2022-10-16T03:21:41;-0.43;109.11
67186;HTU21D;54116;53.518;49.398;2022-10-16T03:24:12;-0.41;108.69
67186;HTU21D;54116;53.518;49.398;2022-10-16T03:26:46;-0.39;108.69
67186;HTU21D;54116;53.518;49.398;2022-10-16T03:29:18;-0.36;108.64
67186;HTU21D;54116;53.518;49.398;2022-10-16T03:31:49;-0.31;108.59
67186;HTU21D;54116;53.518;49.398;2022-10-16T03:34:20;-0.27;108.48
67186;HTU21D;54116;53.518;49.398;2022-10-16T03:36:52;-0.25;108.17
67186;HTU21D;54116;53.518;49.398;2022-10-16T03:39:23;-0.21;108.11
67186;HTU21D;54116;53.518;49.398;2022-10-16T03:41:55;-0.10;109.59
67186;HTU21D;54116;53.518;49.398;2022-10-16T03:44:26;-0.00;109.65
67186;HTU21D;54116;53.518;49.398;2022-10-16T03:46:58;0.08;109.61
67186;HTU21D;54116;53.518;49.398;2022-10-16T03:49:29;0.12;108.58
67186;HTU21D;54116;53.518;49.398;2022-10-16T03:52:00;0.16;108.33
67186;HTU21D;54116;53.518;49.398;2022-10-16T03:54:31;0.20;107.88
67186;HTU21D;54116;53.518;49.398;2022-10-16T03:57:11;0.23;107.91
67186;HTU21D;54116;53.518;49.398;2022-10-16T03:59:42;0.29;107.92
67186;HTU21D;54116;53.518;49.398;2022-10-16T04:02:14;0.31;107.72
67186;HTU21D;54116;53.518;49.398;2022-10-16T04:04:45;0.35;107.66
67186;HTU21D;54116;53.518;49.398;2022-10-16T04:07:17;0.45;107.49
67186;HTU21D;54116;53.518;49.398;2022-10-16T04:09:50;0.58;107.28
67186;HTU21D;54116;53.518;49.398;2022-10-16T04:12:23;0.82;107.62
67186;HTU21D;54116;53.518;49.398;2022-10-16T04:14:54;2.09;106.32
67186;HTU21D;54116;53.518;49.398;2022-10-16T04:17:25;4.23;97.03
67186;HTU21D;54116;53.518;49.398;2022-10-16T04:19:57;4.65;88.59
67186;HTU21D;54116;53.518;49.398;2022-10-16T04:22:28;4.10;90.49
67186;HTU21D;54116;53.518;49.398;2022-10-16T04:24:59;3.43;93.45
67186;HTU21D;54116;53.518;49.398;2022-10-16T04:27:31;2.89;96.02
67186;HTU21D;54116;53.518;49.398;2022-10-16T04:30:03;2.60;98.08
67186;HTU21D;54116;53.518;49.398;2022-10-16T04:32:35;2.46;99.70
67186;HTU21D;54116;53.518;49.398;2022-10-16T04:35:07;2.39;100.35
67186;HTU21D;54116;53.518;49.398;2022-10-16T04:37:38;2.35;100.53
67186;HTU21D;54116;53.518;49.398;2022-10-16T04:40:10;2.36;101.21
67186;HTU21D;54116;53.518;49.398;2022-10-16T04:42:41;2.37;102.29
67186;HTU21D;54116;53.518;49.398;2022-10-16T04:45:13;2.57;102.47
67186;HTU21D;54116;53.518;49.398;2022-10-16T04:47:44;2.75;103.83
67186;HTU21D;54116;53.518;49.398;2022-10-16T04:50:16;2.98;102.35
67186;HTU21D;54116;53.518;49.398;2022-10-16T04:52:47;3.38;100.81
67186;HTU21D;54116;53.518;49.398;2022-10-16T04:55:18;3.85;100.41
67186;HTU21D;54116;53.518;49.398;2022-10-16T04:57:50;4.91;97.51
67186;HTU21D;54116;53.518;49.398;2022-10-16T05:00:21;6.90;88.05
67186;HTU21D;54116;53.518;49.398;2022-10-16T05:02:53;8.67;80.45
67186;HTU21D;54116;53.518;49.398;2022-10-16T05:05:24;10.45;74.72
67186;HTU21D;54116;53.518;49.398;2022-10-16T05:07:56;12.23;68.51
67186;HTU21D;54116;53.518;49.398;2022-10-16T05:10:27;13.39;63.29
67186;HTU21D;54116;53.518;49.398;2022-10-16T05:12:59;13.98;62.74
67186;HTU21D;54116;53.518;49.398;2022-10-16T05:15:30;14.65;56.99
67186;HTU21D;54116;53.518;49.398;2022-10-16T05:18:02;13.73;59.86
67186;HTU21D;54116;53.518;49.398;2022-10-16T05:20:33;11.39;68.03
67186;HTU21D;54116;53.518;49.398;2022-10-16T05:23:05;9.85;75.64
67186;HTU21D;54116;53.518;49.398;2022-10-16T05:25:36;9.01;78.38
67186;HTU21D;54116;53.518;49.398;2022-10-16T05:28:08;8.20;82.56
67186;HTU21D;54116;53.518;49.398;2022-10-16T05:30:39;7.90;84.01
67186;HTU21D;54116;53.518;49.398;2022-10-16T05:33:10;7.75;84.19
67186;HTU21D;54116;53.518;49.398;2022-10-16T05:35:42;7.65;87.03
67186;HTU21D;54116;53.518;49.398;2022-10-16T05:38:14;7.26;85.66
67186;HTU21D;54116;53.518;49.398;2022-10-16T05:40:52;7.15;88.76
67186;HTU21D;54116;53.518;49.398;2022-10-16T05:43:24;7.13;90.41
67186;HTU21D;54116;53.518;49.398;2022-10-16T05:46:05;7.24;88.39
67186;HTU21D;54116;53.518;49.398;2022-10-16T05:48:37;7.45;87.47
67186;HTU21D;54116;53.518;49.398;2022-10-16T05:51:11;7.60;88.89
67186;HTU21D;54116;53.518;49.398;2022-10-16T05:53:43;7.47;86.90
67186;HTU21D;54116;53.518;49.398;2022-10-16T05:56:15;7.40;85.37
67186;HTU21D;54116;53.518;49.398;2022-10-16T05:58:46;7.38;87.69
67186;HTU21D;54116;53.518;49.398;2022-10-16T06:01:18;7.32;88.36
67186;HTU21D;54116;53.518;49.398;2022-10-16T06:03:52;7.35;89.96
67186;HTU21D;54116;53.518;49.398;2022-10-16T06:06:26;7.35;89.02
67186;HTU21D;54116;53.518;49.398;2022-10-16T06:08:57;7.29;87.79
67186;HTU21D;54116;53.518;49.398;2022-10-16T06:11:32;7.33;86.55
67186;HTU21D;54116;53.518;49.398;2022-10-16T06:14:03;7.37;87.80
67186;HTU21D;54116;53.518;49.398;2022-10-16T06:16:38;7.46;88.78
67186;HTU21D;54116;53.518;49.398;2022-10-16T06:19:09;7.58;87.25
67186;HTU21D;54116;53.518;49.398;2022-10-16T06:21:41;7.81;89.48
67186;HTU21D;54116;53.518;49.398;2022-10-16T06:24:12;7.87;84.74
67186;HTU21D;54116;53.518;49.398;2022-10-16T06:26:43;7.99;85.84
67186;HTU21D;54116;53.518;49.398;2022-10-16T06:29:15;8.01;85.38
67186;HTU21D;54116;53.518;49.398;2022-10-16T06:31:46;8.01;88.07
67186;HTU21D;54116;53.518;49.398;2022-10-16T06:34:18;8.08;85.42
67186;HTU21D;54116;53.518;49.398;2022-10-16T06:36:49;8.12;83.04
67186;HTU21D;54116;53.518;49.398;2022-10-16T06:39:20;8.02;83.57
67186;HTU21D;54116;53.518;49.398;2022-10-16T06:41:52;8.03;85.07
67186;HTU21D;54116;53.518;49.398;2022-10-16T06:44:24;8.12;83.75
67186;HTU21D;54116;53.518;49.398;2022-10-16T06:46:55;8.12;82.22
67186;HTU21D;54116;53.518;49.398;2022-10-16T06:49:27;8.14;81.54
67186;HTU21D;54116;53.518;49.398;2022-10-16T06:51:59;8.17;84.18
67186;HTU21D;54116;53.518;49.398;2022-10-16T06:54:30;8.23;81.66
67186;HTU21D;54116;53.518;49.398;2022-10-16T06:57:02;8.35;83.84
67186;HTU21D;54116;53.518;49.398;2022-10-16T06:59:38;8.31;81.46
67186;HTU21D;54116;53.518;49.398;2022-10-16T07:02:10;8.20;82.83
67186;HTU21D;54116;53.518;49.398;2022-10-16T07:04:41;8.37;83.63
67186;HTU21D;54116;53.518;49.398;2022-10-16T07:07:19;8.55;81.75
67186;HTU21D;54116;53.518;49.398;2022-10-16T07:09:50;8.60;81.60
67186;HTU21D;54116;53.518;49.398;2022-10-16T07:12:22;8.72;78.29
67186;HTU21D;54116;53.518;49.398;2022-10-16T07:14:53;8.66;78.18
67186;HTU21D;54116;53.518;49.398;2022-10-16T07:17:25;8.76;79.45
67186;HTU21D;54116;53.518;49.398;2022-10-16T07:19:57;8.70;77.43
67186;HTU21D;54116;53.518;49.398;2022-10-16T07:22:28;8.64;74.15
67186;HTU21D;54116;53.518;49.398;2022-10-16T07:25:00;8.74;72.98
67186;HTU21D;54116;53.518;49.398;2022-10-16T07:27:31;8.77;73.93
67186;HTU21D;54116;53.518;49.398;2022-10-16T07:30:06;8.77;71.87
67186;HTU21D;54116;53.518;49.398;2022-10-16T07:32:41;8.78;75.14
67186;HTU21D;54116;53.518;49.398;2022-10-16T07:35:12;8.86;75.64
67186;HTU21D;54116;53.518;49.398;2022-10-16T07:37:45;8.94;73.50
67186;HTU21D;54116;53.518;49.398;2022-10-16T07:40:17;9.00;73.27
67186;HTU21D;54116;53.518;49.398;2022-10-16T07:42:48;9.09;74.38
67186;HTU21D;54116;53.518;49.398;2022-10-16T07:45:20;9.11;73.77
67186;HTU21D;54116;53.518;49.398;2022-10-16T07:47:51;9.06;73.85
67186;HTU21D;54116;53.518;49.398;2022-10-16T07:50:22;9.15;74.89
67186;HTU21D;54116;53.518;49.398;2022-10-16T07:52:54;9.22;72.99
67186;HTU21D;54116;53.518;49.398;2022-10-16T07:55:28;9.20;70.87
67186;HTU21D;54116;53.518;49.398;2022-10-16T07:58:00;9.18;72.29
67186;HTU21D;54116;53.518;49.398;2022-10-16T08:00:32;9.17;70.26
67186;HTU21D;54116;53.518;49.398;2022-10-16T08:03:03;9.02;71.96
67186;HTU21D;54116;53.518;49.398;2022-10-16T08:05:38;8.67;73.89
67186;HTU21D;54116;53.518;49.398;2022-10-16T08:08:14;8.61;75.38
67186;HTU21D;54116;53.518;49.398;2022-10-16T08:10:46;8.72;74.38
67186;HTU21D;54116;53.518;49.398;2022-10-16T08:13:17;8.88;73.41
67186;HTU21D;54116;53.518;49.398;2022-10-16T08:15:49;8.91;71.11
67186;HTU21D;54116;53.518;49.398;2022-10-16T08:18:20;8.97;70.77
67186;HTU21D;54116;53.518;49.398;2022-10-16T08:20:59;9.11;72.25
67186;HTU21D;54116;53.518;49.398;2022-10-16T08:23:32;9.32;69.56
67186;HTU21D;54116;53.518;49.398;2022-10-16T08:26:07;9.32;70.55
67186;HTU21D;54116;53.518;49.398;2022-10-16T08:28:39;9.34;69.71
67186;HTU21D;54116;53.518;49.398;2022-10-16T08:31:13;9.37;70.77
67186;HTU21D;54116;53.518;49.398;2022-10-16T08:33:45;9.51;69.26
67186;HTU21D;54116;53.518;49.398;2022-10-16T08:36:18;9.55;68.93
67186;HTU21D;54116;53.518;49.398;2022-10-16T08:38:50;9.53;69.13
67186;HTU21D;54116;53.518;49.398;2022-10-16T08:44:21;9.51;68.58
67186;HTU21D;54116;53.518;49.398;2022-10-16T08:47:11;9.62;69.38
67186;HTU21D;54116;53.518;49.398;2022-10-16T08:49:55;9.44;70.86
67186;HTU21D;54116;53.518;49.398;2022-10-16T08:52:34;9.36;68.81
67186;HTU21D;54116;53.518;49.398;2022-10-16T08:55:08;9.40;69.27
67186;HTU21D;54116;53.518;49.398;2022-10-16T08:57:47;9.69;68.07
67186;HTU21D;54116;53.518;49.398;2022-10-16T09:00:19;9.90;66.16
67186;HTU21D;54116;53.518;49.398;2022-10-16T09:02:59;10.05;64.42
67186;HTU21D;54116;53.518;49.398;2022-10-16T09:06:08;9.97;65.09
67186;HTU21D;54116;53.518;49.398;2022-10-16T09:17:33;10.14;62.92
67186;HTU21D;54116;53.518;49.398;2022-10-16T09:20:23;10.20;64.96
67186;HTU21D;54116;53.518;49.398;2022-10-16T09:23:16;10.16;63.45
67186;HTU21D;54116;53.518;49.398;2022-10-16T09:25:49;10.10;65.08
67186;HTU21D;54116;53.518;49.398;2022-10-16T09:28:21;9.85;65.87
67186;HTU21D;54116;53.518;49.398;2022-10-16T09:30:52;9.70;66.27
67186;HTU21D;54116;53.518;49.398;2022-10-16T09:33:35;9.69;66.92
67186;HTU21D;54116;53.518;49.398;2022-10-16T09:36:09;9.92;67.26
67186;HTU21D;54116;53.518;49.398;2022-10-16T09:38:41;9.90;64.73
67186;HTU21D;54116;53.518;49.398;2022-10-16T09:41:33;9.79;67.53
67186;HTU21D;54116;53.518;49.398;2022-10-16T09:44:30;9.95;66.55
67186;HTU21D;54116;53.518;49.398;2022-10-16T09:47:13;10.09;66.51
67186;HTU21D;54116;53.518;49.398;2022-10-16T09:50:02;10.12;65.88
67186;HTU21D;54116;53.518;49.398;2022-10-16T09:52:35;10.27;65.52
67186;HTU21D;54116;53.518;49.398;2022-10-16T09:55:17;10.46;65.95
67186;HTU21D;54116;53.518;49.398;2022-10-16T09:57:53;10.59;64.35
67186;HTU21D;54116;53.518;49.398;2022-10-16T10:00:28;10.74;65.30
67186;HTU21D;54116;53.518;49.398;2022-10-16T10:03:01;10.79;64.42
67186;HTU21D;54116;53.518;49.398;2022-10-16T10:05:32;10.83;63.66
67186;HTU21D;54116;53.518;49.398;2022-10-16T10:08:04;10.72;63.23
67186;HTU21D;54116;53.518;49.398;2022-10-16T10:10:42;10.73;65.62
67186;HTU21D;54116;53.518;49.398;2022-10-16T10:13:21;10.92;63.22
67186;HTU21D;54116;53.518;49.398;2022-10-16T10:15:53;10.60;64.56
67186;HTU21D;54116;53.518;49.398;2022-10-16T10:18:25;10.56;63.54
67186;HTU21D;54116;53.518;49.398;2022-10-16T10:21:02;10.75;65.14
67186;HTU21D;54116;53.518;49.398;2022-10-16T10:23:33;10.74;63.34
67186;HTU21D;54116;53.518;49.398;2022-10-16T10:26:17;10.69;64.93
67186;HTU21D;54116;53.518;49.398;2022-10-16T10:31:30;10.69;61.85
67186;HTU21D;54116;53.518;49.398;2022-10-16T10:37:04;10.48;64.26
67186;HTU21D;54116;53.518;49.398;2022-10-16T10:39:47;10.62;64.43
67186;HTU21D;54116;53.518;49.398;2022-10-16T10:42:48;10.74;64.98
67186;HTU21D;54116;53.518;49.398;2022-10-16T10:50:53;10.79;63.60
67186;HTU21D;54116;53.518;49.398;2022-10-16T10:53:31;10.54;63.48
67186;HTU21D;54116;53.518;49.398;2022-10-16T11:02:40;9.94;66.46
67186;HTU21D;54116;53.518;49.398;2022-10-16T11:05:24;10.00;64.74
67186;HTU21D;54116;53.518;49.398;2022-10-16T11:08:23;10.09;63.73
67186;HTU21D;54116;53.518;49.398;2022-10-16T11:11:11;9.97;65.43
67186;HTU21D;54116;53.518;49.398;2022-10-16T11:13:59;10.06;65.48
67186;HTU21D;54116;53.518;49.398;2022-10-16T11:16:37;10.09;64.98
67186;HTU21D;54116;53.518;49.398;2022-10-16T11:19:25;9.76;66.30
67186;HTU21D;54116;53.518;49.398;2022-10-16T11:24:45;9.56;67.08
67186;HTU21D;54116;53.518;49.398;2022-10-16T11:27:22;9.52;66.78
67186;HTU21D;54116;53.518;49.398;2022-10-16T11:29:59;9.37;69.29
67186;HTU21D;54116;53.518;49.398;2022-10-16T11:32:39;9.48;67.75
67186;HTU21D;54116;53.518;49.398;2022-10-16T11:35:25;9.36;69.19
67186;HTU21D;54116;53.518;49.398;2022-10-16T11:37:59;9.55;68.88
67186;HTU21D;54116;53.518;49.398;2022-10-16T11:40:34;9.78;67.53
67186;HTU21D;54116;53.518;49.398;2022-10-16T11:43:16;9.97;69.00
67186;HTU21D;54116;53.518;49.398;2022-10-16T11:45:57;9.94;65.80
67186;HTU21D;54116;53.518;49.398;2022-10-16T11:48:45;9.96;66.45
67186;HTU21D;54116;53.518;49.398;2022-10-16T11:54:12;10.01;66.30
67186;HTU21D;54116;53.518;49.398;2022-10-16T11:56:48;9.96;67.72
67186;HTU21D;54116;53.518;49.398;2022-10-16T11:59:36;9.97;66.43
67186;HTU21D;54116;53.518;49.398;2022-10-16T12:03:17;10.00;66.30
67186;HTU21D;54116;53.518;49.398;2022-10-16T12:08:19;10.09;66.72
67186;HTU21D;54116;53.518;49.398;2022-10-16T12:10:50;10.04;64.78
67186;HTU21D;54116;53.518;49.398;2022-10-16T12:13:33;9.98;64.87
67186;HTU21D;54116;53.518;49.398;2022-10-16T12:18:45;9.91;65.62
67186;HTU21D;54116;53.518;49.398;2022-10-16T12:21:17;9.91;67.88
67186;HTU21D;54116;53.518;49.398;2022-10-16T12:23:55;9.93;65.94
67186;HTU21D;54116;53.518;49.398;2022-10-16T12:26:32;9.86;67.01
67186;HTU21D;54116;53.518;49.398;2022-10-16T12:29:41;9.75;67.91
67186;HTU21D;54116;53.518;49.398;2022-10-16T12:32:35;9.72;69.05
67186;HTU21D;54116;53.518;49.398;2022-10-16T12:35:19;9.63;68.97
67186;HTU21D;54116;53.518;49.398;2022-10-16T12:38:03;9.52;69.83
67186;HTU21D;54116;53.518;49.398;2022-10-16T12:40:38;9.40;68.96
67186;HTU21D;54116;53.518;49.398;2022-10-16T12:43:25;9.30;70.05
67186;HTU21D;54116;53.518;49.398;2022-10-16T12:46:26;9.17;70.83
67186;HTU21D;54116;53.518;49.398;2022-10-16T12:49:14;9.08;71.96
67186;HTU21D;54116;53.518;49.398;2022-10-16T12:51:50;8.97;71.79
67186;HTU21D;54116;53.518;49.398;2022-10-16T12:54:36;8.89;72.57
67186;HTU21D;54116;53.518;49.398;2022-10-16T13:14:05;8.20;75.82
67186;HTU21D;54116;53.518;49.398;2022-10-16T13:22:19;7.72;78.95
67186;HTU21D;54116;53.518;49.398;2022-10-16T13:25:01;7.53;79.68
67186;HTU21D;54116;53.518;49.398;2022-10-16T13:27:56;7.37;80.03
67186;HTU21D;54116;53.518;49.398;2022-10-16T13:30:34;7.18;80.04
67186;HTU21D;54116;53.518;49.398;2022-10-16T13:36:00;6.80;82.46
67186;HTU21D;54116;53.518;49.398;2022-10-16T13:38:34;6.59;83.58
67186;HTU21D;54116;53.518;49.398;2022-10-16T13:41:17;6.43;85.23
67186;HTU21D;54116;53.518;49.398;2022-10-16T13:43:51;6.26;87.20
67186;HTU21D;54116;53.518;49.398;2022-10-16T13:46:24;6.09;85.55
67186;HTU21D;54116;53.518;49.398;2022-10-16T13:49:01;5.92;89.09
67186;HTU21D;54116;53.518;49.398;2022-10-16T13:51:33;5.78;88.51
67186;HTU21D;54116;53.518;49.398;2022-10-16T13:54:05;5.68;90.63
67186;HTU21D;54116;53.518;49.398;2022-10-16T13:56:38;5.53;90.34
67186;HTU21D;54116;53.518;49.398;2022-10-16T13:59:32;5.40;92.88
67186;HTU21D;54116;53.518;49.398;2022-10-16T14:05:09;5.17;91.82
67186;HTU21D;54116;53.518;49.398;2022-10-16T14:07:42;5.05;94.15
67186;HTU21D;54116;53.518;49.398;2022-10-16T14:10:29;4.96;95.23
67186;HTU21D;54116;53.518;49.398;2022-10-16T14:13:04;4.90;94.73
67186;HTU21D;54116;53.518;49.398;2022-10-16T14:15:36;4.78;95.88
67186;HTU21D;54116;53.518;49.398;2022-10-16T14:18:18;4.69;94.23
67186;HTU21D;54116;53.518;49.398;2022-10-16T14:20:51;4.61;96.90
67186;HTU21D;54116;53.518;49.398;2022-10-16T14:23:29;4.56;96.17
67186;HTU21D;54116;53.518;49.398;2022-10-16T14:28:43;4.39;97.91
67186;HTU21D;54116;53.518;49.398;2022-10-16T14:31:30;4.30;95.89
67186;HTU21D;54116;53.518;49.398;2022-10-16T14:34:04;4.19;98.02
67186;HTU21D;54116;53.518;49.398;2022-10-16T14:36:35;4.09;96.94
67186;HTU21D;54116;53.518;49.398;2022-10-16T14:39:19;4.04;97.19
67186;HTU21D;54116;53.518;49.398;2022-10-16T14:41:52;3.98;97.68
67186;HTU21D;54116;53.518;49.398;2022-10-16T14:44:30;3.93;98.94
67186;HTU21D;54116;53.518;49.398;2022-10-16T14:47:18;3.88;98.39
67186;HTU21D;54116;53.518;49.398;2022-10-16T14:49:54;3.85;98.26
67186;HTU21D;54116;53.518;49.398;2022-10-16T14:52:27;3.80;99.62
67186;HTU21D;54116;53.518;49.398;2022-10-16T14:54:58;3.78;100.00
67186;HTU21D;54116;53.518;49.398;2022-10-16T14:57:32;3.73;99.14
67186;HTU21D;54116;53.518;49.398;2022-10-16T15:00:31;3.64;98.55
67186;HTU21D;54116;53.518;49.398;2022-10-16T15:03:02;3.58;99.21
67186;HTU21D;54116;53.518;49.398;2022-10-16T15:05:33;3.50;98.33
67186;HTU21D;54116;53.518;49.398;2022-10-16T15:08:05;3.41;101.17
67186;HTU21D;54116;53.518;49.398;2022-10-16T15:10:42;3.32;100.12
67186;HTU21D;54116;53.518;49.398;2022-10-16T15:13:14;3.26;100.99
67186;HTU21D;54116;53.518;49.398;2022-10-16T15:15:47;3.20;97.97
67186;HTU21D;54116;53.518;49.398;2022-10-16T15:18:21;3.18;99.42
67186;HTU21D;54116;53.518;49.398;2022-10-16T15:20:53;3.17;97.31
67186;HTU21D;54116;53.518;49.398;2022-10-16T15:23:24;3.08;98.78
67186;HTU21D;54116;53.518;49.398;2022-10-16T15:25:56;3.00;98.60
67186;HTU21D;54116;53.518;49.398;2022-10-16T15:28:28;2.93;99.64
67186;HTU21D;54116;53.518;49.398;2022-10-16T15:30:59;2.86;98.55
67186;HTU21D;54116;53.518;49.398;2022-10-16T15:33:31;2.84;98.57
67186;HTU21D;54116;53.518;49.398;2022-10-16T15:36:05;2.82;100.40
67186;HTU21D;54116;53.518;49.398;2022-10-16T15:38:36;2.84;100.85
67186;HTU21D;54116;53.518;49.398;2022-10-16T15:41:07;2.86;100.90
67186;HTU21D;54116;53.518;49.398;2022-10-16T15:43:39;2.81;100.91
67186;HTU21D;54116;53.518;49.398;2022-10-16T15:46:11;2.79;99.26
67186;HTU21D;54116;53.518;49.398;2022-10-16T15:48:46;2.73;98.48
67186;HTU21D;54116;53.518;49.398;2022-10-16T15:51:18;2.67;99.87
67186;HTU21D;54116;53.518;49.398;2022-10-16T15:53:50;2.61;99.85
67186;HTU21D;54116;53.518;49.398;2022-10-16T15:56:22;2.61;101.26
67186;HTU21D;54116;53.518;49.398;2022-10-16T15:58:55;2.64;102.02
67186;HTU21D;54116;53.518;49.398;2022-10-16T16:01:28;2.64;102.38
67186;HTU21D;54116;53.518;49.398;2022-10-16T16:04:00;2.59;100.98
67186;HTU21D;54116;53.518;49.398;2022-10-16T16:06:31;2.50;100.78
67186;HTU21D;54116;53.518;49.398;2022-10-16T16:09:03;2.42;101.87
67186;HTU21D;54116;53.518;49.398;2022-10-16T16:11:34;2.39;102.44
67186;HTU21D;54116;53.518;49.398;2022-10-16T16:14:13;2.35;102.87
67186;HTU21D;54116;53.518;49.398;2022-10-16T16:16:44;2.29;102.83
67186;HTU21D;54116;53.518;49.398;2022-10-16T16:19:15;2.23;102.51
67186;HTU21D;54116;53.518;49.398;2022-10-16T16:21:51;2.14;102.16
67186;HTU21D;54116;53.518;49.398;2022-10-16T16:24:23;2.09;102.67
67186;HTU21D;54116;53.518;49.398;2022-10-16T16:26:54;2.08;102.63
67186;HTU21D;54116;53.518;49.398;2022-10-16T16:29:25;2.05;101.61
67186;HTU21D;54116;53.518;49.398;2022-10-16T16:31:59;2.02;101.24
67186;HTU21D;54116;53.518;49.398;2022-10-16T16:34:30;2.01;102.35
67186;HTU21D;54116;53.518;49.398;2022-10-16T16:37:02;2.00;103.34
67186;HTU21D;54116;53.518;49.398;2022-10-16T16:39:33;2.01;104.54
67186;HTU21D;54116;53.518;49.398;2022-10-16T16:42:04;1.96;103.82
67186;HTU21D;54116;53.518;49.398;2022-10-16T16:44:38;1.94;102.50
67186;HTU21D;54116;53.518;49.398;2022-10-16T16:47:09;1.91;102.62
67186;HTU21D;54116;53.518;49.398;2022-10-16T16:49:40;1.90;103.40
67186;HTU21D;54116;53.518;49.398;2022-10-16T16:52:13;1.87;103.21
67186;HTU21D;54116;53.518;49.398;2022-10-16T16:54:44;1.87;103.22
67186;HTU21D;54116;53.518;49.398;2022-10-16T16:57:22;1.82;102.92
67186;HTU21D;54116;53.518;49.398;2022-10-16T16:59:53;1.79;103.59
67186;HTU21D;54116;53.518;49.398;2022-10-16T17:02:25;1.77;103.72
67186;HTU21D;54116;53.518;49.398;2022-10-16T17:04:56;1.76;103.08
67186;HTU21D;54116;53.518;49.398;2022-10-16T17:07:31;1.70;103.57
67186;HTU21D;54116;53.518;49.398;2022-10-16T17:10:03;1.67;103.10
67186;HTU21D;54116;53.518;49.398;2022-10-16T17:12:35;1.60;103.85
67186;HTU21D;54116;53.518;49.398;2022-10-16T17:15:07;1.55;104.63
67186;HTU21D;54116;53.518;49.398;2022-10-16T17:17:38;1.55;104.86